sensor_id;sensor_type;location;lat;lon;timestamp;P1;durP1;ratioP1;P2;durP2;ratioP2
23451;SDS011;11898;51.130;6.780;2022-07-23T00:00:41;10.28;;;7.33;;
23451;SDS011;11898;51.130;6.780;2022-07-23T00:03:09;9.28;;;7.55;;
23451;SDS011;11898;51.130;6.780;2022-07-23T00:05:38;11.18;;;7.30;;
23451;SDS011;11898;51.130;6.780;2022-07-23T00:08:07;12.78;;;8.05;;
23451;SDS011;11898;51.130;6.780;2022-07-23T00:10:38;11.48;;;8.33;;
23451;SDS011;11898;51.130;6.780;2022-07-23T00:13:06;35.55;;;18.00;;
23451;SDS011;11898;51.130;6.780;2022-07-23T00:15:35;13.18;;;8.83;;
23451;SDS011;11898;51.130;6.780;2022-07-23T00:18:04;13.32;;;8.23;;
23451;SDS011;11898;51.130;6.780;2022-07-23T00:20:32;13.20;;;8.50;;
23451;SDS011;11898;51.130;6.780;2022-07-23T00:23:01;10.75;;;8.18;;
23451;SDS011;11898;51.130;6.780;2022-07-23T00:25:30;10.78;;;8.10;;
23451;SDS011;11898;51.130;6.780;2022-07-23T00:27:59;10.28;;;7.95;;
23451;SDS011;11898;51.130;6.780;2022-07-23T00:30:28;11.38;;;8.63;;
23451;SDS011;11898;51.130;6.780;2022-07-23T00:32:59;12.00;;;8.15;;
23451;SDS011;11898;51.130;6.780;2022-07-23T00:35:33;12.03;;;8.78;;
23451;SDS011;11898;51.130;6.780;2022-07-23T00:38:04;11.08;;;7.90;;
23451;SDS011;11898;51.130;6.780;2022-07-23T00:40:33;12.25;;;8.88;;
23451;SDS011;11898;51.130;6.780;2022-07-23T00:43:03;10.13;;;8.68;;
23451;SDS011;11898;51.130;6.780;2022-07-23T00:45:31;13.50;;;9.38;;
23451;SDS011;11898;51.130;6.780;2022-07-23T00:48:00;12.23;;;8.60;;
23451;SDS011;11898;51.130;6.780;2022-07-23T00:50:29;12.28;;;8.65;;
23451;SDS011;11898;51.130;6.780;2022-07-23T00:52:58;9.73;;;8.18;;
23451;SDS011;11898;51.130;6.780;2022-07-23T00:55:27;10.75;;;9.15;;
23451;SDS011;11898;51.130;6.780;2022-07-23T00:57:55;10.90;;;9.05;;
23451;SDS011;11898;51.130;6.780;2022-07-23T01:00:26;10.75;;;8.60;;
23451;SDS011;11898;51.130;6.780;2022-07-23T01:02:55;14.50;;;9.30;;
23451;SDS011;11898;51.130;6.780;2022-07-23T01:05:24;11.53;;;8.40;;
23451;SDS011;11898;51.130;6.780;2022-07-23T01:07:53;9.53;;;8.00;;
23451;SDS011;11898;51.130;6.780;2022-07-23T01:10:22;13.18;;;8.75;;
23451;SDS011;11898;51.130;6.780;2022-07-23T01:13:03;10.20;;;7.92;;
23451;SDS011;11898;51.130;6.780;2022-07-23T01:15:36;11.53;;;9.00;;
23451;SDS011;11898;51.130;6.780;2022-07-23T01:18:06;9.18;;;8.20;;
23451;SDS011;11898;51.130;6.780;2022-07-23T01:20:35;10.25;;;8.00;;
23451;SDS011;11898;51.130;6.780;2022-07-23T01:23:04;12.03;;;8.75;;
23451;SDS011;11898;51.130;6.780;2022-07-23T01:25:33;12.53;;;9.28;;
23451;SDS011;11898;51.130;6.780;2022-07-23T01:28:01;11.12;;;9.00;;
23451;SDS011;11898;51.130;6.780;2022-07-23T01:30:30;11.15;;;8.90;;
23451;SDS011;11898;51.130;6.780;2022-07-23T01:32:59;9.83;;;7.75;;
23451;SDS011;11898;51.130;6.780;2022-07-23T01:35:27;10.55;;;8.33;;
23451;SDS011;11898;51.130;6.780;2022-07-23T01:37:56;10.80;;;8.30;;
23451;SDS011;11898;51.130;6.780;2022-07-23T01:40:25;13.15;;;8.95;;
23451;SDS011;11898;51.130;6.780;2022-07-23T01:42:54;11.43;;;9.18;;
23451;SDS011;11898;51.130;6.780;2022-07-23T01:45:23;11.97;;;8.95;;
23451;SDS011;11898;51.130;6.780;2022-07-23T01:47:52;12.45;;;9.75;;
23451;SDS011;11898;51.130;6.780;2022-07-23T01:50:20;16.37;;;9.23;;
23451;SDS011;11898;51.130;6.780;2022-07-23T01:52:49;11.35;;;8.63;;
23451;SDS011;11898;51.130;6.780;2022-07-23T01:55:18;12.15;;;9.13;;
23451;SDS011;11898;51.130;6.780;2022-07-23T01:57:46;15.10;;;8.95;;
23451;SDS011;11898;51.130;6.780;2022-07-23T02:00:15;13.22;;;8.98;;
23451;SDS011;11898;51.130;6.780;2022-07-23T02:02:44;12.73;;;9.23;;
23451;SDS011;11898;51.130;6.780;2022-07-23T02:05:12;13.68;;;9.20;;
23451;SDS011;11898;51.130;6.780;2022-07-23T02:07:41;10.18;;;7.85;;
23451;SDS011;11898;51.130;6.780;2022-07-23T02:10:10;13.85;;;9.13;;
23451;SDS011;11898;51.130;6.780;2022-07-23T02:12:38;12.47;;;8.78;;
23451;SDS011;11898;51.130;6.780;2022-07-23T02:15:07;9.93;;;7.78;;
23451;SDS011;11898;51.130;6.780;2022-07-23T02:17:37;12.73;;;8.85;;
23451;SDS011;11898;51.130;6.780;2022-07-23T02:20:08;12.10;;;8.58;;
23451;SDS011;11898;51.130;6.780;2022-07-23T02:22:37;9.60;;;7.67;;
23451;SDS011;11898;51.130;6.780;2022-07-23T02:25:06;11.88;;;8.45;;
23451;SDS011;11898;51.130;6.780;2022-07-23T02:27:36;11.12;;;8.10;;
23451;SDS011;11898;51.130;6.780;2022-07-23T02:30:05;11.95;;;8.78;;
23451;SDS011;11898;51.130;6.780;2022-07-23T02:32:34;11.33;;;8.20;;
23451;SDS011;11898;51.130;6.780;2022-07-23T02:35:03;12.50;;;8.95;;
23451;SDS011;11898;51.130;6.780;2022-07-23T02:37:33;12.82;;;8.98;;
23451;SDS011;11898;51.130;6.780;2022-07-23T02:40:02;11.57;;;8.28;;
23451;SDS011;11898;51.130;6.780;2022-07-23T02:42:31;10.18;;;8.65;;
23451;SDS011;11898;51.130;6.780;2022-07-23T02:44:59;14.47;;;9.40;;
23451;SDS011;11898;51.130;6.780;2022-07-23T02:47:28;12.63;;;9.25;;
23451;SDS011;11898;51.130;6.780;2022-07-23T02:49:58;10.70;;;8.73;;
23451;SDS011;11898;51.130;6.780;2022-07-23T02:52:27;10.68;;;8.73;;
23451;SDS011;11898;51.130;6.780;2022-07-23T02:54:55;11.83;;;9.28;;
23451;SDS011;11898;51.130;6.780;2022-07-23T02:57:24;13.15;;;9.30;;
23451;SDS011;11898;51.130;6.780;2022-07-23T02:59:52;12.25;;;9.28;;
23451;SDS011;11898;51.130;6.780;2022-07-23T03:02:21;12.47;;;9.00;;
23451;SDS011;11898;51.130;6.780;2022-07-23T03:04:50;12.30;;;9.18;;
23451;SDS011;11898;51.130;6.780;2022-07-23T03:07:19;11.75;;;8.83;;
23451;SDS011;11898;51.130;6.780;2022-07-23T03:09:47;12.30;;;9.30;;
23451;SDS011;11898;51.130;6.780;2022-07-23T03:12:16;11.15;;;8.58;;
23451;SDS011;11898;51.130;6.780;2022-07-23T03:14:44;12.45;;;8.40;;
23451;SDS011;11898;51.130;6.780;2022-07-23T03:17:13;11.35;;;8.00;;
23451;SDS011;11898;51.130;6.780;2022-07-23T03:19:42;9.93;;;7.60;;
23451;SDS011;11898;51.130;6.780;2022-07-23T03:22:10;10.10;;;8.35;;
23451;SDS011;11898;51.130;6.780;2022-07-23T03:24:39;9.05;;;7.87;;
23451;SDS011;11898;51.130;6.780;2022-07-23T03:27:26;12.88;;;8.75;;
23451;SDS011;11898;51.130;6.780;2022-07-23T03:29:58;10.85;;;8.43;;
23451;SDS011;11898;51.130;6.780;2022-07-23T03:32:27;11.45;;;8.70;;
23451;SDS011;11898;51.130;6.780;2022-07-23T03:34:56;10.95;;;8.90;;
23451;SDS011;11898;51.130;6.780;2022-07-23T03:37:25;12.85;;;9.60;;
23451;SDS011;11898;51.130;6.780;2022-07-23T03:39:54;10.58;;;8.48;;
23451;SDS011;11898;51.130;6.780;2022-07-23T03:42:22;11.03;;;8.78;;
23451;SDS011;11898;51.130;6.780;2022-07-23T03:44:51;10.82;;;8.65;;
23451;SDS011;11898;51.130;6.780;2022-07-23T03:47:20;10.80;;;9.00;;
23451;SDS011;11898;51.130;6.780;2022-07-23T03:49:48;13.85;;;9.15;;
23451;SDS011;11898;51.130;6.780;2022-07-23T03:52:17;10.95;;;8.28;;
23451;SDS011;11898;51.130;6.780;2022-07-23T03:54:46;9.23;;;8.23;;
23451;SDS011;11898;51.130;6.780;2022-07-23T03:57:14;12.07;;;9.80;;
23451;SDS011;11898;51.130;6.780;2022-07-23T03:59:43;11.90;;;8.73;;
23451;SDS011;11898;51.130;6.780;2022-07-23T04:02:12;11.57;;;8.80;;
23451;SDS011;11898;51.130;6.780;2022-07-23T04:04:40;9.95;;;8.88;;
23451;SDS011;11898;51.130;6.780;2022-07-23T04:07:09;10.55;;;8.68;;
23451;SDS011;11898;51.130;6.780;2022-07-23T04:09:37;12.00;;;9.38;;
23451;SDS011;11898;51.130;6.780;2022-07-23T04:12:09;11.57;;;9.08;;
23451;SDS011;11898;51.130;6.780;2022-07-23T04:14:37;12.43;;;8.98;;
23451;SDS011;11898;51.130;6.780;2022-07-23T04:17:06;9.83;;;8.83;;
23451;SDS011;11898;51.130;6.780;2022-07-23T04:19:35;11.40;;;8.83;;
23451;SDS011;11898;51.130;6.780;2022-07-23T04:22:05;12.43;;;9.43;;
23451;SDS011;11898;51.130;6.780;2022-07-23T04:24:35;10.88;;;9.20;;
23451;SDS011;11898;51.130;6.780;2022-07-23T04:27:03;9.23;;;8.28;;
23451;SDS011;11898;51.130;6.780;2022-07-23T04:29:32;11.60;;;8.88;;
23451;SDS011;11898;51.130;6.780;2022-07-23T04:32:01;9.65;;;8.63;;
23451;SDS011;11898;51.130;6.780;2022-07-23T04:34:30;9.98;;;8.58;;
23451;SDS011;11898;51.130;6.780;2022-07-23T04:36:58;11.50;;;8.50;;
23451;SDS011;11898;51.130;6.780;2022-07-23T04:39:27;11.00;;;7.87;;
23451;SDS011;11898;51.130;6.780;2022-07-23T04:41:55;10.78;;;8.58;;
23451;SDS011;11898;51.130;6.780;2022-07-23T04:44:24;9.38;;;8.03;;
23451;SDS011;11898;51.130;6.780;2022-07-23T04:46:53;12.78;;;9.53;;
23451;SDS011;11898;51.130;6.780;2022-07-23T04:49:21;11.28;;;10.05;;
23451;SDS011;11898;51.130;6.780;2022-07-23T04:51:50;11.70;;;10.13;;
23451;SDS011;11898;51.130;6.780;2022-07-23T04:54:19;11.55;;;10.32;;
23451;SDS011;11898;51.130;6.780;2022-07-23T04:56:47;11.10;;;10.00;;
23451;SDS011;11898;51.130;6.780;2022-07-23T04:59:16;11.60;;;10.43;;
23451;SDS011;11898;51.130;6.780;2022-07-23T05:01:44;10.95;;;9.95;;
23451;SDS011;11898;51.130;6.780;2022-07-23T05:04:13;13.48;;;10.65;;
23451;SDS011;11898;51.130;6.780;2022-07-23T05:06:42;12.03;;;10.93;;
23451;SDS011;11898;51.130;6.780;2022-07-23T05:09:10;12.93;;;11.55;;
23451;SDS011;11898;51.130;6.780;2022-07-23T05:11:39;13.20;;;11.90;;
23451;SDS011;11898;51.130;6.780;2022-07-23T05:14:07;17.20;;;12.30;;
23451;SDS011;11898;51.130;6.780;2022-07-23T05:16:38;12.03;;;10.93;;
23451;SDS011;11898;51.130;6.780;2022-07-23T05:19:07;12.15;;;11.05;;
23451;SDS011;11898;51.130;6.780;2022-07-23T05:21:35;13.88;;;11.45;;
23451;SDS011;11898;51.130;6.780;2022-07-23T05:24:04;15.05;;;12.00;;
23451;SDS011;11898;51.130;6.780;2022-07-23T05:26:33;12.58;;;11.48;;
23451;SDS011;11898;51.130;6.780;2022-07-23T05:29:02;13.10;;;11.90;;
23451;SDS011;11898;51.130;6.780;2022-07-23T05:31:31;12.73;;;11.38;;
23451;SDS011;11898;51.130;6.780;2022-07-23T05:34:00;11.68;;;10.58;;
23451;SDS011;11898;51.130;6.780;2022-07-23T05:36:28;12.73;;;11.28;;
23451;SDS011;11898;51.130;6.780;2022-07-23T05:38:58;12.90;;;10.85;;
23451;SDS011;11898;51.130;6.780;2022-07-23T05:41:29;11.65;;;10.55;;
23451;SDS011;11898;51.130;6.780;2022-07-23T05:43:58;11.18;;;10.08;;
23451;SDS011;11898;51.130;6.780;2022-07-23T05:46:27;12.20;;;10.38;;
23451;SDS011;11898;51.130;6.780;2022-07-23T05:48:56;11.33;;;10.23;;
23451;SDS011;11898;51.130;6.780;2022-07-23T05:51:25;11.18;;;10.10;;
23451;SDS011;11898;51.130;6.780;2022-07-23T05:53:54;12.13;;;9.85;;
23451;SDS011;11898;51.130;6.780;2022-07-23T05:56:22;10.00;;;8.90;;
23451;SDS011;11898;51.130;6.780;2022-07-23T05:58:51;10.68;;;9.25;;
23451;SDS011;11898;51.130;6.780;2022-07-23T06:01:20;13.40;;;9.20;;
23451;SDS011;11898;51.130;6.780;2022-07-23T06:03:48;11.00;;;9.58;;
23451;SDS011;11898;51.130;6.780;2022-07-23T06:06:17;9.98;;;8.38;;
23451;SDS011;11898;51.130;6.780;2022-07-23T06:08:45;10.72;;;8.58;;
23451;SDS011;11898;51.130;6.780;2022-07-23T06:11:13;10.23;;;8.40;;
23451;SDS011;11898;51.130;6.780;2022-07-23T06:13:43;10.98;;;8.33;;
23451;SDS011;11898;51.130;6.780;2022-07-23T06:16:11;10.50;;;8.58;;
23451;SDS011;11898;51.130;6.780;2022-07-23T06:18:43;13.08;;;9.15;;
23451;SDS011;11898;51.130;6.780;2022-07-23T06:21:13;10.55;;;8.50;;
23451;SDS011;11898;51.130;6.780;2022-07-23T06:23:43;9.38;;;8.38;;
23451;SDS011;11898;51.130;6.780;2022-07-23T06:26:11;11.75;;;9.68;;
23451;SDS011;11898;51.130;6.780;2022-07-23T06:28:40;10.65;;;9.55;;
23451;SDS011;11898;51.130;6.780;2022-07-23T06:31:08;10.55;;;9.45;;
23451;SDS011;11898;51.130;6.780;2022-07-23T06:33:36;12.50;;;10.10;;
23451;SDS011;11898;51.130;6.780;2022-07-23T06:36:05;10.88;;;9.78;;
23451;SDS011;11898;51.130;6.780;2022-07-23T06:38:33;13.05;;;10.53;;
23451;SDS011;11898;51.130;6.780;2022-07-23T06:41:02;10.70;;;8.98;;
23451;SDS011;11898;51.130;6.780;2022-07-23T06:43:30;12.00;;;10.03;;
23451;SDS011;11898;51.130;6.780;2022-07-23T06:45:59;13.45;;;11.68;;
23451;SDS011;11898;51.130;6.780;2022-07-23T06:48:27;11.35;;;10.30;;
23451;SDS011;11898;51.130;6.780;2022-07-23T06:50:56;10.58;;;9.48;;
23451;SDS011;11898;51.130;6.780;2022-07-23T06:56:12;8.88;;;7.15;;
23451;SDS011;11898;51.130;6.780;2022-07-23T06:58:40;9.40;;;7.92;;
23451;SDS011;11898;51.130;6.780;2022-07-23T07:01:08;10.23;;;8.18;;
23451;SDS011;11898;51.130;6.780;2022-07-23T07:03:37;12.70;;;8.00;;
23451;SDS011;11898;51.130;6.780;2022-07-23T07:06:05;11.70;;;8.70;;
23451;SDS011;11898;51.130;6.780;2022-07-23T07:08:33;11.20;;;9.13;;
23451;SDS011;11898;51.130;6.780;2022-07-23T07:11:01;12.30;;;9.48;;
23451;SDS011;11898;51.130;6.780;2022-07-23T07:13:30;12.45;;;9.63;;
23451;SDS011;11898;51.130;6.780;2022-07-23T07:15:58;12.85;;;10.20;;
23451;SDS011;11898;51.130;6.780;2022-07-23T07:18:26;13.35;;;10.30;;
23451;SDS011;11898;51.130;6.780;2022-07-23T07:20:55;12.78;;;10.13;;
23451;SDS011;11898;51.130;6.780;2022-07-23T07:23:24;13.35;;;9.98;;
23451;SDS011;11898;51.130;6.780;2022-07-23T07:25:52;13.40;;;9.78;;
23451;SDS011;11898;51.130;6.780;2022-07-23T07:28:21;15.75;;;9.88;;
23451;SDS011;11898;51.130;6.780;2022-07-23T07:30:49;15.90;;;9.95;;
23451;SDS011;11898;51.130;6.780;2022-07-23T07:33:17;14.53;;;10.78;;
23451;SDS011;11898;51.130;6.780;2022-07-23T07:35:46;15.93;;;11.35;;
23451;SDS011;11898;51.130;6.780;2022-07-23T07:38:15;17.57;;;11.48;;
23451;SDS011;11898;51.130;6.780;2022-07-23T07:40:43;17.15;;;11.90;;
23451;SDS011;11898;51.130;6.780;2022-07-23T07:43:11;18.67;;;12.35;;
23451;SDS011;11898;51.130;6.780;2022-07-23T07:45:39;16.85;;;9.53;;
23451;SDS011;11898;51.130;6.780;2022-07-23T07:48:08;15.38;;;9.68;;
23451;SDS011;11898;51.130;6.780;2022-07-23T07:50:36;13.95;;;9.28;;
23451;SDS011;11898;51.130;6.780;2022-07-23T07:53:05;14.83;;;9.03;;
23451;SDS011;11898;51.130;6.780;2022-07-23T07:55:33;12.93;;;8.43;;
23451;SDS011;11898;51.130;6.780;2022-07-23T07:58:01;15.53;;;9.78;;
23451;SDS011;11898;51.130;6.780;2022-07-23T08:00:30;15.20;;;9.53;;
23451;SDS011;11898;51.130;6.780;2022-07-23T08:02:59;9.73;;;7.62;;
23451;SDS011;11898;51.130;6.780;2022-07-23T08:05:30;9.33;;;6.97;;
23451;SDS011;11898;51.130;6.780;2022-07-23T08:07:58;13.85;;;8.68;;
23451;SDS011;11898;51.130;6.780;2022-07-23T08:10:27;15.55;;;9.43;;
23451;SDS011;11898;51.130;6.780;2022-07-23T08:12:56;13.93;;;10.70;;
23451;SDS011;11898;51.130;6.780;2022-07-23T08:15:26;14.03;;;8.78;;
23451;SDS011;11898;51.130;6.780;2022-07-23T08:17:54;12.37;;;8.40;;
23451;SDS011;11898;51.130;6.780;2022-07-23T08:20:23;10.63;;;8.43;;
23451;SDS011;11898;51.130;6.780;2022-07-23T08:22:54;10.15;;;8.50;;
23451;SDS011;11898;51.130;6.780;2022-07-23T08:25:28;10.10;;;7.83;;
23451;SDS011;11898;51.130;6.780;2022-07-23T08:27:58;10.13;;;7.53;;
23451;SDS011;11898;51.130;6.780;2022-07-23T08:30:27;10.85;;;8.13;;
23451;SDS011;11898;51.130;6.780;2022-07-23T08:33:03;9.78;;;8.15;;
23451;SDS011;11898;51.130;6.780;2022-07-23T08:35:37;9.90;;;7.45;;
23451;SDS011;11898;51.130;6.780;2022-07-23T08:38:03;9.75;;;8.28;;
23451;SDS011;11898;51.130;6.780;2022-07-23T08:40:33;9.15;;;7.55;;
23451;SDS011;11898;51.130;6.780;2022-07-23T08:43:04;8.83;;;6.55;;
23451;SDS011;11898;51.130;6.780;2022-07-23T08:45:41;9.65;;;6.60;;
23451;SDS011;11898;51.130;6.780;2022-07-23T08:48:15;9.75;;;6.53;;
23451;SDS011;11898;51.130;6.780;2022-07-23T08:50:44;10.88;;;7.03;;
23451;SDS011;11898;51.130;6.780;2022-07-23T08:53:13;9.43;;;6.72;;
23451;SDS011;11898;51.130;6.780;2022-07-23T08:55:45;10.35;;;7.20;;
23451;SDS011;11898;51.130;6.780;2022-07-23T08:58:14;10.68;;;8.03;;
23451;SDS011;11898;51.130;6.780;2022-07-23T09:00:43;9.95;;;8.00;;
23451;SDS011;11898;51.130;6.780;2022-07-23T09:03:16;9.23;;;7.47;;
23451;SDS011;11898;51.130;6.780;2022-07-23T09:05:41;9.25;;;8.28;;
23451;SDS011;11898;51.130;6.780;2022-07-23T09:08:10;9.85;;;7.85;;
23451;SDS011;11898;51.130;6.780;2022-07-23T09:16:03;8.25;;;6.90;;
23451;SDS011;11898;51.130;6.780;2022-07-23T09:23:45;9.55;;;7.10;;
23451;SDS011;11898;51.130;6.780;2022-07-23T09:28:52;9.48;;;7.30;;
23451;SDS011;11898;51.130;6.780;2022-07-23T09:31:21;7.35;;;6.37;;
23451;SDS011;11898;51.130;6.780;2022-07-23T09:46:24;7.47;;;5.72;;
23451;SDS011;11898;51.130;6.780;2022-07-23T09:48:53;5.57;;;5.07;;
23451;SDS011;11898;51.130;6.780;2022-07-23T13:46:03;2.67;;;2.10;;
23451;SDS011;11898;51.130;6.780;2022-07-23T13:48:32;3.98;;;2.27;;
23451;SDS011;11898;51.130;6.780;2022-07-23T13:51:00;2.50;;;2.30;;
23451;SDS011;11898;51.130;6.780;2022-07-23T13:53:29;2.52;;;2.00;;
23451;SDS011;11898;51.130;6.780;2022-07-23T13:55:57;2.10;;;2.00;;
23451;SDS011;11898;51.130;6.780;2022-07-23T13:58:25;2.30;;;2.02;;
23451;SDS011;11898;51.130;6.780;2022-07-23T14:00:54;2.00;;;1.90;;
23451;SDS011;11898;51.130;6.780;2022-07-23T14:03:22;2.08;;;1.87;;
23451;SDS011;11898;51.130;6.780;2022-07-23T14:05:52;1.80;;;1.70;;
23451;SDS011;11898;51.130;6.780;2022-07-23T14:08:22;2.17;;;1.92;;
23451;SDS011;11898;51.130;6.780;2022-07-23T14:10:50;2.30;;;2.10;;
23451;SDS011;11898;51.130;6.780;2022-07-23T14:13:18;2.20;;;2.10;;
23451;SDS011;11898;51.130;6.780;2022-07-23T14:15:48;1.92;;;1.82;;
23451;SDS011;11898;51.130;6.780;2022-07-23T14:18:17;2.87;;;2.00;;
23451;SDS011;11898;51.130;6.780;2022-07-23T14:20:45;2.27;;;2.08;;
23451;SDS011;11898;51.130;6.780;2022-07-23T14:23:13;2.02;;;1.92;;
23451;SDS011;11898;51.130;6.780;2022-07-23T14:25:41;1.90;;;1.80;;
23451;SDS011;11898;51.130;6.780;2022-07-23T14:28:10;1.80;;;1.70;;
23451;SDS011;11898;51.130;6.780;2022-07-23T14:30:39;2.00;;;1.90;;
23451;SDS011;11898;51.130;6.780;2022-07-23T14:33:08;2.15;;;2.05;;
23451;SDS011;11898;51.130;6.780;2022-07-23T14:35:38;2.92;;;2.40;;
23451;SDS011;11898;51.130;6.780;2022-07-23T14:38:07;2.87;;;2.60;;
23451;SDS011;11898;51.130;6.780;2022-07-23T14:40:35;2.12;;;2.02;;
23451;SDS011;11898;51.130;6.780;2022-07-23T14:43:03;2.37;;;1.80;;
23451;SDS011;11898;51.130;6.780;2022-07-23T14:45:33;1.90;;;1.80;;
23451;SDS011;11898;51.130;6.780;2022-07-23T14:48:03;1.98;;;1.80;;
23451;SDS011;11898;51.130;6.780;2022-07-23T14:50:31;2.12;;;1.90;;
23451;SDS011;11898;51.130;6.780;2022-07-23T14:52:59;2.07;;;1.93;;
23451;SDS011;11898;51.130;6.780;2022-07-23T14:55:30;2.12;;;2.02;;
23451;SDS011;11898;51.130;6.780;2022-07-23T14:57:58;2.30;;;2.10;;
23451;SDS011;11898;51.130;6.780;2022-07-23T15:00:27;2.30;;;2.10;;
23451;SDS011;11898;51.130;6.780;2022-07-23T15:02:56;2.33;;;2.13;;
23451;SDS011;11898;51.130;6.780;2022-07-23T15:05:24;2.22;;;2.02;;
23451;SDS011;11898;51.130;6.780;2022-07-23T15:07:53;2.35;;;2.15;;
23451;SDS011;11898;51.130;6.780;2022-07-23T15:10:21;2.37;;;2.17;;
23451;SDS011;11898;51.130;6.780;2022-07-23T15:12:50;2.20;;;2.00;;
23451;SDS011;11898;51.130;6.780;2022-07-23T15:15:19;2.20;;;2.10;;
23451;SDS011;11898;51.130;6.780;2022-07-23T15:17:48;2.30;;;2.10;;
23451;SDS011;11898;51.130;6.780;2022-07-23T15:20:16;2.10;;;2.00;;
23451;SDS011;11898;51.130;6.780;2022-07-23T15:22:46;2.00;;;1.90;;
23451;SDS011;11898;51.130;6.780;2022-07-23T15:25:15;2.95;;;2.10;;
23451;SDS011;11898;51.130;6.780;2022-07-23T15:27:44;2.40;;;2.20;;
23451;SDS011;11898;51.130;6.780;2022-07-23T15:30:12;2.00;;;1.90;;
23451;SDS011;11898;51.130;6.780;2022-07-23T15:32:41;2.20;;;2.10;;
23451;SDS011;11898;51.130;6.780;2022-07-23T15:35:09;2.20;;;2.10;;
23451;SDS011;11898;51.130;6.780;2022-07-23T15:37:37;2.52;;;2.33;;
23451;SDS011;11898;51.130;6.780;2022-07-23T15:40:06;3.00;;;2.20;;
23451;SDS011;11898;51.130;6.780;2022-07-23T15:42:36;2.80;;;2.42;;
23451;SDS011;11898;51.130;6.780;2022-07-23T15:45:05;2.65;;;2.10;;
23451;SDS011;11898;51.130;6.780;2022-07-23T15:47:33;2.30;;;2.20;;
23451;SDS011;11898;51.130;6.780;2022-07-23T15:50:01;2.40;;;2.20;;
23451;SDS011;11898;51.130;6.780;2022-07-23T15:52:30;2.60;;;2.40;;
23451;SDS011;11898;51.130;6.780;2022-07-23T15:54:58;2.60;;;2.40;;
23451;SDS011;11898;51.130;6.780;2022-07-23T15:57:27;2.50;;;2.30;;
23451;SDS011;11898;51.130;6.780;2022-07-23T15:59:55;2.30;;;2.10;;
23451;SDS011;11898;51.130;6.780;2022-07-23T16:02:26;2.10;;;2.00;;
23451;SDS011;11898;51.130;6.780;2022-07-23T16:04:55;2.47;;;2.27;;
23451;SDS011;11898;51.130;6.780;2022-07-23T16:07:24;3.10;;;2.30;;
23451;SDS011;11898;51.130;6.780;2022-07-23T16:09:52;2.58;;;2.37;;
23451;SDS011;11898;51.130;6.780;2022-07-23T16:12:21;2.55;;;2.40;;
23451;SDS011;11898;51.130;6.780;2022-07-23T16:14:49;2.47;;;2.27;;
23451;SDS011;11898;51.130;6.780;2022-07-23T16:17:17;2.27;;;2.12;;
23451;SDS011;11898;51.130;6.780;2022-07-23T16:19:46;2.55;;;2.33;;
23451;SDS011;11898;51.130;6.780;2022-07-23T16:22:14;2.87;;;2.67;;
23451;SDS011;11898;51.130;6.780;2022-07-23T16:24:45;2.50;;;2.30;;
23451;SDS011;11898;51.130;6.780;2022-07-23T16:27:13;2.65;;;2.45;;
23451;SDS011;11898;51.130;6.780;2022-07-23T16:29:41;2.30;;;2.10;;
23451;SDS011;11898;51.130;6.780;2022-07-23T16:32:10;2.58;;;2.37;;
23451;SDS011;11898;51.130;6.780;2022-07-23T16:34:38;2.50;;;2.30;;
23451;SDS011;11898;51.130;6.780;2022-07-23T16:37:09;2.20;;;2.10;;
23451;SDS011;11898;51.130;6.780;2022-07-23T16:39:38;2.30;;;2.20;;
23451;SDS011;11898;51.130;6.780;2022-07-23T16:42:06;2.27;;;2.17;;
23451;SDS011;11898;51.130;6.780;2022-07-23T16:44:35;2.40;;;2.30;;
23451;SDS011;11898;51.130;6.780;2022-07-23T16:47:03;2.33;;;2.12;;
23451;SDS011;11898;51.130;6.780;2022-07-23T16:49:31;2.77;;;2.58;;
23451;SDS011;11898;51.130;6.780;2022-07-23T16:52:02;2.45;;;2.25;;
23451;SDS011;11898;51.130;6.780;2022-07-23T16:54:32;2.70;;;2.50;;
23451;SDS011;11898;51.130;6.780;2022-07-23T16:57:00;2.90;;;2.70;;
23451;SDS011;11898;51.130;6.780;2022-07-23T16:59:28;2.50;;;2.40;;
23451;SDS011;11898;51.130;6.780;2022-07-23T17:01:56;2.85;;;2.60;;
23451;SDS011;11898;51.130;6.780;2022-07-23T17:04:25;2.83;;;2.60;;
23451;SDS011;11898;51.130;6.780;2022-07-23T17:06:53;2.83;;;2.62;;
23451;SDS011;11898;51.130;6.780;2022-07-23T17:09:21;3.00;;;2.77;;
23451;SDS011;11898;51.130;6.780;2022-07-23T17:11:50;2.95;;;2.75;;
23451;SDS011;11898;51.130;6.780;2022-07-23T17:14:18;3.40;;;2.60;;
23451;SDS011;11898;51.130;6.780;2022-07-23T17:16:46;2.70;;;2.50;;
23451;SDS011;11898;51.130;6.780;2022-07-23T17:19:14;2.63;;;2.43;;
23451;SDS011;11898;51.130;6.780;2022-07-23T17:21:43;2.25;;;2.15;;
23451;SDS011;11898;51.130;6.780;2022-07-23T17:24:11;2.45;;;2.30;;
23451;SDS011;11898;51.130;6.780;2022-07-23T17:26:40;2.92;;;2.72;;
23451;SDS011;11898;51.130;6.780;2022-07-23T17:29:10;2.77;;;2.58;;
23451;SDS011;11898;51.130;6.780;2022-07-23T17:31:38;2.70;;;2.50;;
23451;SDS011;11898;51.130;6.780;2022-07-23T17:34:07;2.45;;;2.30;;
23451;SDS011;11898;51.130;6.780;2022-07-23T17:36:36;2.70;;;2.50;;
23451;SDS011;11898;51.130;6.780;2022-07-23T17:39:04;2.20;;;2.10;;
23451;SDS011;11898;51.130;6.780;2022-07-23T17:41:34;2.60;;;2.40;;
23451;SDS011;11898;51.130;6.780;2022-07-23T17:44:02;2.90;;;2.60;;
23451;SDS011;11898;51.130;6.780;2022-07-23T17:46:31;3.13;;;2.40;;
23451;SDS011;11898;51.130;6.780;2022-07-23T17:48:59;2.42;;;2.22;;
23451;SDS011;11898;51.130;6.780;2022-07-23T17:51:28;2.30;;;2.20;;
23451;SDS011;11898;51.130;6.780;2022-07-23T17:53:57;2.90;;;2.70;;
23451;SDS011;11898;51.130;6.780;2022-07-23T17:56:26;2.83;;;2.60;;
23451;SDS011;11898;51.130;6.780;2022-07-23T17:58:54;2.80;;;2.60;;
23451;SDS011;11898;51.130;6.780;2022-07-23T18:01:22;2.95;;;2.67;;
23451;SDS011;11898;51.130;6.780;2022-07-23T18:03:51;2.72;;;2.52;;
23451;SDS011;11898;51.130;6.780;2022-07-23T18:06:19;2.80;;;2.60;;
23451;SDS011;11898;51.130;6.780;2022-07-23T18:08:47;2.50;;;2.30;;
23451;SDS011;11898;51.130;6.780;2022-07-23T18:11:16;2.65;;;2.47;;
23451;SDS011;11898;51.130;6.780;2022-07-23T18:13:44;2.90;;;2.70;;
23451;SDS011;11898;51.130;6.780;2022-07-23T18:16:13;2.92;;;2.72;;
23451;SDS011;11898;51.130;6.780;2022-07-23T18:18:41;3.08;;;2.80;;
23451;SDS011;11898;51.130;6.780;2022-07-23T18:21:10;3.00;;;2.70;;
23451;SDS011;11898;51.130;6.780;2022-07-23T18:23:38;3.30;;;3.00;;
23451;SDS011;11898;51.130;6.780;2022-07-23T18:26:07;2.95;;;2.75;;
23451;SDS011;11898;51.130;6.780;2022-07-23T18:28:39;2.72;;;2.52;;
23451;SDS011;11898;51.130;6.780;2022-07-23T18:31:07;2.95;;;2.75;;
23451;SDS011;11898;51.130;6.780;2022-07-23T18:33:36;2.70;;;2.50;;
23451;SDS011;11898;51.130;6.780;2022-07-23T18:38:33;2.37;;;2.17;;
23451;SDS011;11898;51.130;6.780;2022-07-23T18:41:04;2.92;;;2.55;;
23451;SDS011;11898;51.130;6.780;2022-07-23T18:43:35;3.65;;;2.60;;
23451;SDS011;11898;51.130;6.780;2022-07-23T18:46:03;2.33;;;2.12;;
23451;SDS011;11898;51.130;6.780;2022-07-23T18:48:31;3.17;;;2.87;;
23451;SDS011;11898;51.130;6.780;2022-07-23T18:51:00;3.08;;;2.50;;
23451;SDS011;11898;51.130;6.780;2022-07-23T18:53:28;2.65;;;2.45;;
23451;SDS011;11898;51.130;6.780;2022-07-23T18:55:57;3.25;;;2.47;;
23451;SDS011;11898;51.130;6.780;2022-07-23T18:58:25;2.33;;;2.10;;
23451;SDS011;11898;51.130;6.780;2022-07-23T19:00:53;2.40;;;2.20;;
23451;SDS011;11898;51.130;6.780;2022-07-23T19:03:22;2.22;;;2.08;;
23451;SDS011;11898;51.130;6.780;2022-07-23T19:05:50;3.02;;;2.67;;
23451;SDS011;11898;51.130;6.780;2022-07-23T19:08:18;3.98;;;3.45;;
23451;SDS011;11898;51.130;6.780;2022-07-23T19:10:48;8.85;;;5.50;;
23451;SDS011;11898;51.130;6.780;2022-07-23T19:13:16;4.12;;;3.72;;